Depoe Bay, OR

12:12 AM PDT on July 01, 2015 (GMT -0700)
Willark Park | | Change Station
CLOSE
Current Station
Personal Weather Station
Location: Depoe Bay, OR
Elevation: 72 ft
Nearby Weather Stations

Elev 72 ft 44.85 °N, 124.05 °W | Updated 18 seconds ago

Mostly Cloudy
Mostly Cloudy
53.4 °F
Feels Like 53.4 °F
N
3.1
Wind Variable Wind from ESE
Gusts 6.0 mph

Today
High -- | Low -- °F
--% Chance of Precip.
Yesterday
High -- | Low -- °F
Precip. -- in
5:33 AM 9:05 PM
Waxing Gibbous, 99% visible
Pressure 30.09 in
Visibility 7.0 miles
Clouds Mostly Cloudy 200 ft
Dew Point 51 °F
Humidity 93%
Rainfall 0.00 in
Snow Depth Not available.
UV 0 out of 12
Pollen 9.00 out of 12
Air Quality Not available.
Flu Activity Not available.
METAR KONP 010655Z AUTO 35006KT 7SM BKN002 12/11 A3009 RMK AO2

More Conditions Fewer Conditions

Pressure 30.09 in
Visibility 7.0 miles
Clouds Mostly Cloudy 200 ft
Dew Point 51 °F
Humidity 93%
Rainfall 0.00 in
Snow Depth Not available.
UV 0 out of 12
Pollen 9.00 out of 12
Air Quality Not available.
Flu Activity Not available.
METAR KONP 010655Z AUTO 35006KT 7SM BKN002 12/11 A3009 RMK AO2

More Conditions Fewer Conditions

10-Day Weather Forecast

×

Almanac

Astronomy

Jul. 01, 2015 Rise Set
Actual Time
Civil Twilight
Nautical Twilight
Astronomical Twilight
Moon
Length of Visible Light
Length of Day
Tomorrow will be .
, % of the Moon is Illuminated

Today's Extremes

State Highs State Lows

Community

WunderPhotos

Upload Photos

1,834,163 photos uploaded!

WunderBlogs® & News

Nearby

Air Quality

  Air Quality AQ Index Pollutant
Not available.

Snow Depth

Station Depth Elevation

Earthquake Activity

City Distance Mag. Time & Date
Minimum magnitude displayed is 2.5.

Coastal Water Temperatures

Place Temperature

Stations

Nearby Weather Stations

Station Location Temp. Windchill Dew Point Humidity Wind Precip. Elev Updated Type